Time;durP1;ratioP1;P1;durP2;ratioP2;P2;SDS_P1;SDS_P2;PMS_P1;PMS_P2;Temp;Humidity;BMP_temperature;BMP_pressure;BME280_temperature;BME280_humidity;BME280_pressure;Samples;Min_cycle;Max_cycle;Signal;HPM_P1;HPM_P2
2021/07/19 00:00:36;;;;;;;21.35;15.68;;;;;;;22.93;75.83;98928.65;130504;1087;22539;-59
2021/07/19 00:03:06;;;;;;;21.75;16.68;;;;;;;22.93;75.69;98935.02;130565;1086;22493;-58
2021/07/19 00:05:35;;;;;;;22.38;16.43;;;;;;;22.92;75.63;98930.62;130472;1087;22624;-57
2021/07/19 00:08:24;;;;;;;31.95;17.55;;;;;;;22.88;75.61;98922.17;130542;1086;23413;-58
2021/07/19 00:11:13;;;;;;;21.40;17.83;;;;;;;22.86;75.90;98932.02;130506;1086;22616;-58
2021/07/19 00:13:53;;;;;;;20.03;15.00;;;;;;;22.83;75.81;98924.39;130536;1087;22513;-57
2021/07/19 00:16:42;;;;;;;21.68;15.33;;;;;;;22.80;75.81;98925.09;130497;1087;22534;-57
2021/07/19 00:19:15;;;;;;;20.00;16.38;;;;;;;22.77;76.04;98923.84;130543;1087;22660;-57
2021/07/19 00:22:04;;;;;;;21.40;16.65;;;;;;;22.75;76.36;98919.77;130499;1087;22514;-57
2021/07/19 00:24:33;;;;;;;29.28;18.13;;;;;;;22.73;76.59;98914.56;130552;1087;22523;-58
2021/07/19 00:27:11;;;;;;;24.75;16.20;;;;;;;22.72;76.74;98910.17;130505;1085;22544;-58
2021/07/19 00:29:40;;;;;;;21.93;16.33;;;;;;;22.69;76.39;98905.32;130556;1085;22565;-58
2021/07/19 00:32:09;;;;;;;21.30;16.68;;;;;;;22.68;76.60;98911.22;130523;1087;22536;-58
2021/07/19 00:34:39;;;;;;;30.18;18.08;;;;;;;22.65;76.64;98906.40;130491;1087;22536;-58
2021/07/19 00:37:08;;;;;;;22.03;17.08;;;;;;;22.62;76.91;98904.32;130509;1085;22567;-57
2021/07/19 00:39:37;;;;;;;27.73;18.63;;;;;;;22.61;77.00;98905.48;130525;1086;22608;-58
2021/07/19 00:42:06;;;;;;;21.90;17.38;;;;;;;22.58;77.04;98906.98;130461;1086;22541;-57
2021/07/19 00:44:35;;;;;;;24.13;17.63;;;;;;;22.55;77.13;98900.16;130488;1085;22683;-57
2021/07/19 00:47:04;;;;;;;24.50;17.10;;;;;;;22.53;77.38;98898.89;130499;1087;22538;-58
2021/07/19 00:49:34;;;;;;;22.10;15.88;;;;;;;22.51;77.27;98901.21;130514;1085;23052;-57
2021/07/19 00:52:04;;;;;;;22.53;16.55;;;;;;;22.49;77.39;98900.78;130511;1087;23103;-58
2021/07/19 00:54:33;;;;;;;23.90;16.95;;;;;;;22.48;77.27;98902.75;130496;1085;22556;-58
2021/07/19 00:57:02;;;;;;;28.33;17.20;;;;;;;22.47;77.21;98905.88;130496;1087;22625;-57
2021/07/19 00:59:34;;;;;;;31.98;18.38;;;;;;;22.45;77.41;98903.45;130510;1087;22568;-58
2021/07/19 01:02:03;;;;;;;25.00;17.68;;;;;;;22.43;77.16;98900.20;130517;1085;22519;-58
2021/07/19 01:04:32;;;;;;;23.18;15.63;;;;;;;22.41;77.31;98901.72;130456;1087;22558;-57
2021/07/19 01:07:03;;;;;;;20.90;15.95;;;;;;;22.39;77.38;98904.03;130468;1087;22529;-58
2021/07/19 01:09:33;;;;;;;31.45;16.70;;;;;;;22.38;77.49;98894.89;130424;1087;23447;-57
2021/07/19 01:12:02;;;;;;;27.80;18.28;;;;;;;22.37;77.58;98895.23;130387;1087;22591;-58
2021/07/19 01:14:34;;;;;;;26.83;16.38;;;;;;;22.36;77.60;98897.20;130343;1087;22589;-57
2021/07/19 01:17:07;;;;;;;27.88;16.90;;;;;;;22.35;77.69;98892.03;130454;1087;22559;-57
2021/07/19 01:19:37;;;;;;;30.60;16.23;;;;;;;22.32;77.87;98893.54;130407;1087;22562;-57
2021/07/19 01:22:22;;;;;;;24.60;16.25;;;;;;;22.32;77.93;98892.73;130447;1087;22525;-57
2021/07/19 01:24:53;;;;;;;18.63;14.55;;;;;;;22.31;77.96;98894.70;130184;1087;23240;-57
2021/07/19 01:28:00;;;;;;;23.00;17.00;;;;;;;22.32;77.97;98890.77;130461;1087;22580;-57
2021/07/19 01:30:29;;;;;;;23.95;16.60;;;;;;;22.33;77.76;98888.80;130391;1088;23246;-58
2021/07/19 01:33:02;;;;;;;20.05;15.70;;;;;;;22.32;78.01;98887.17;130437;1087;22568;-58
2021/07/19 01:35:34;;;;;;;33.55;17.10;;;;;;;22.32;77.60;98881.63;130430;1087;22547;-58
2021/07/19 01:38:04;;;;;;;25.50;16.95;;;;;;;22.29;77.67;98890.65;130438;1087;22577;-58
2021/07/19 01:40:36;;;;;;;28.28;17.95;;;;;;;22.25;77.66;98890.53;130385;1087;22544;-59
2021/07/19 01:43:07;;;;;;;22.88;18.15;;;;;;;22.23;77.87;98888.11;130460;1087;22562;-59
2021/07/19 01:45:37;;;;;;;25.78;18.85;;;;;;;22.20;78.04;98897.16;130487;1087;23753;-59
2021/07/19 01:48:08;;;;;;;22.25;18.00;;;;;;;22.20;78.13;98902.70;130457;1087;22526;-59
2021/07/19 01:50:37;;;;;;;24.25;16.83;;;;;;;22.18;78.17;98896.69;130429;1087;22548;-59
2021/07/19 01:53:16;;;;;;;23.40;16.98;;;;;;;22.17;77.71;98892.30;130506;1086;22535;-59
2021/07/19 01:55:45;;;;;;;28.13;17.45;;;;;;;22.16;77.94;98898.20;130417;1087;23673;-59
2021/07/19 01:58:14;;;;;;;32.80;19.18;;;;;;;22.12;78.00;98900.86;130471;1087;22528;-59
2021/07/19 02:00:52;;;;;;;27.13;17.73;;;;;;;22.11;78.08;98904.78;130470;1087;23205;-59
2021/07/19 02:03:21;;;;;;;26.78;18.23;;;;;;;22.10;78.22;98899.58;130513;1087;23169;-59
2021/07/19 02:05:53;;;;;;;37.13;19.05;;;;;;;22.08;78.34;98899.92;130395;1087;22575;-59
2021/07/19 02:08:23;;;;;;;32.60;19.13;;;;;;;22.07;78.39;98903.08;130534;1085;22519;-59
2021/07/19 02:11:12;;;;;;;37.15;19.38;;;;;;;22.05;78.57;98899.84;130432;1087;22594;-59
2021/07/19 02:13:43;;;;;;;26.45;18.28;;;;;;;22.04;78.61;98892.67;130466;1087;22654;-59
2021/07/19 02:16:13;;;;;;;24.40;17.98;;;;;;;22.03;78.55;98897.41;130449;1087;22543;-59
2021/07/19 02:18:44;;;;;;;31.80;19.38;;;;;;;22.02;78.67;98901.34;130487;1087;23290;-58
2021/07/19 02:21:13;;;;;;;32.90;19.20;;;;;;;22.01;78.79;98902.50;130432;1085;22590;-59
2021/07/19 02:24:02;;;;;;;33.45;18.30;;;;;;;22.00;78.79;98902.84;130495;1086;22496;-59
2021/07/19 02:26:46;;;;;;;31.25;18.23;;;;;;;22.00;78.76;98905.61;130455;1085;22575;-59
2021/07/19 02:29:16;;;;;;;28.88;19.10;;;;;;;22.00;78.70;98913.94;130463;1087;22683;-59
2021/07/19 02:31:49;;;;;;;30.18;19.70;;;;;;;21.99;78.80;98910.36;130439;1085;23413;-59
2021/07/19 02:34:19;;;;;;;37.58;19.83;;;;;;;22.00;78.82;98911.97;130494;1087;22531;-59
2021/07/19 02:36:48;;;;;;;31.45;19.98;;;;;;;22.00;78.90;98911.16;130426;1087;23187;-59
2021/07/19 02:39:18;;;;;;;35.80;20.55;;;;;;;22.00;79.05;98906.42;130493;1087;22553;-57
2021/07/19 02:41:47;;;;;;;34.38;21.08;;;;;;;22.02;79.12;98917.98;130470;1087;22509;-57
2021/07/19 02:44:16;;;;;;;39.80;22.13;;;;;;;22.04;79.21;98915.67;130535;1085;22527;-57
2021/07/19 02:47:01;;;;;;;43.33;22.78;;;;;;;22.07;79.32;98922.50;130440;1087;22552;-57
2021/07/19 02:49:33;;;;;;;46.80;22.83;;;;;;;22.09;79.40;98923.74;130453;1087;22558;-57
2021/07/19 02:52:03;;;;;;;47.98;24.30;;;;;;;22.12;79.41;98930.56;130511;1086;23095;-57
2021/07/19 02:54:33;;;;;;;48.78;24.83;;;;;;;22.14;79.57;98925.48;130480;1087;23283;-57
2021/07/19 02:57:02;;;;;;;44.53;25.20;;;;;;;22.17;79.60;98931.15;130441;1087;22564;-57
2021/07/19 02:59:35;;;;;;;49.95;25.60;;;;;;;22.21;79.66;98929.30;130498;1087;22554;-57
2021/07/19 03:02:05;;;;;;;45.75;24.33;;;;;;;22.27;79.78;98932.63;130470;1085;22535;-57
2021/07/19 03:04:34;;;;;;;43.75;22.93;;;;;;;22.33;79.93;98934.02;130500;1087;22545;-57
2021/07/19 03:07:04;;;;;;;49.80;26.85;;;;;;;22.38;79.92;98930.16;130419;1087;22551;-57
2021/07/19 03:09:37;;;;;;;52.73;25.58;;;;;;;22.43;80.09;98932.71;130407;1087;22580;-57
2021/07/19 03:12:07;;;;;;;58.73;26.15;;;;;;;22.48;80.07;98938.84;130517;1087;23452;-57
2021/07/19 03:14:37;;;;;;;53.70;27.85;;;;;;;22.53;79.80;98941.34;130462;1086;22651;-57
2021/07/19 03:17:06;;;;;;;53.65;26.18;;;;;;;22.61;79.64;98944.35;130461;1087;22533;-57
2021/07/19 03:19:37;;;;;;;48.10;24.50;;;;;;;22.70;79.57;98943.04;130430;1087;22572;-57
2021/07/19 03:22:06;;;;;;;42.13;23.18;;;;;;;22.80;79.11;98950.89;130478;1087;22556;-57
2021/07/19 03:24:55;;;;;;;48.43;23.70;;;;;;;22.93;79.07;98939.77;130462;1087;23079;-57
2021/07/19 03:27:25;;;;;;;47.75;23.08;;;;;;;23.04;78.56;98951.98;130483;1085;22537;-57
2021/07/19 03:29:55;;;;;;;37.90;22.10;;;;;;;23.14;78.31;98949.48;130422;1087;23089;-57
2021/07/19 03:32:28;;;;;;;35.78;22.90;;;;;;;23.25;77.92;98958.91;130431;1087;22576;-57
2021/07/19 03:35:05;;;;;;;27.13;19.73;;;;;;;23.37;76.87;98960.84;130416;1087;22629;-57
2021/07/19 03:37:38;;;;;;;30.60;19.80;;;;;;;23.44;75.64;98957.42;130509;1087;22549;-57
2021/07/19 03:40:08;;;;;;;28.33;18.60;;;;;;;23.61;75.11;98960.71;130405;1087;23714;-57
2021/07/19 03:42:40;;;;;;;26.10;19.90;;;;;;;23.71;74.33;98969.67;130483;1086;23055;-57
2021/07/19 03:45:11;;;;;;;32.08;20.70;;;;;;;23.79;74.09;98961.17;130468;1085;22510;-57
2021/07/19 03:48:46;;;;;;;28.98;19.63;;;;;;;23.89;73.51;98955.05;125572;1093;22854;-55
2021/07/19 03:51:15;;;;;;;27.03;18.98;;;;;;;23.98;73.08;98958.44;125344;1092;22796;-54
2021/07/19 03:53:46;;;;;;;23.18;18.28;;;;;;;24.06;73.06;98962.22;130056;1092;22526;-56
2021/07/19 03:56:16;;;;;;;31.40;18.55;;;;;;;24.15;72.66;98962.02;130072;1093;22545;-56
2021/07/19 03:58:45;;;;;;;26.85;19.13;;;;;;;24.22;71.95;98957.44;130044;1093;22597;-56
2021/07/19 04:01:14;;;;;;;27.65;19.38;;;;;;;24.29;71.22;98963.19;130041;1093;22528;-56
2021/07/19 04:03:48;;;;;;;28.58;18.90;;;;;;;24.37;70.94;98960.58;129756;1093;22559;-56
2021/07/19 04:06:19;;;;;;;26.55;19.15;;;;;;;24.44;70.45;98960.73;130033;1092;22572;-56
2021/07/19 04:08:55;;;;;;;29.23;19.90;;;;;;;24.48;70.75;98956.86;130069;1092;22537;-56
2021/07/19 04:11:26;;;;;;;29.30;18.95;;;;;;;24.54;70.46;98958.17;129780;1093;22600;-56
2021/07/19 04:13:59;;;;;;;31.05;19.00;;;;;;;24.62;70.43;98957.17;130069;1093;22552;-55
2021/07/19 04:16:28;;;;;;;30.35;19.95;;;;;;;24.68;70.70;98954.89;130019;1093;23229;-56
2021/07/19 04:18:57;;;;;;;23.05;19.00;;;;;;;24.75;70.97;98951.45;129912;1093;23138;-56
2021/07/19 04:21:26;;;;;;;28.23;18.88;;;;;;;24.79;71.47;98950.37;129979;1093;22598;-56
2021/07/19 04:23:55;;;;;;;24.60;18.58;;;;;;;24.84;71.41;98955.63;129902;1092;22528;-56
2021/07/19 04:26:29;;;;;;;26.98;18.20;;;;;;;24.90;71.43;98947.80;129972;1092;23215;-56
2021/07/19 04:29:01;;;;;;;29.43;18.38;;;;;;;24.96;72.14;98958.30;129953;1093;22577;-56
2021/07/19 04:31:34;;;;;;;30.70;18.65;;;;;;;25.02;72.21;98956.03;130027;1093;22612;-56
2021/07/19 04:34:04;;;;;;;28.28;17.95;;;;;;;25.07;72.42;98963.30;129907;1093;22535;-57
2021/07/19 04:36:41;;;;;;;24.25;17.40;;;;;;;25.11;72.26;98958.58;130025;1092;22600;-56
2021/07/19 04:39:12;;;;;;;37.10;19.13;;;;;;;25.15;72.28;98954.70;130103;1093;22668;-57
2021/07/19 04:41:41;;;;;;;28.25;16.90;;;;;;;25.20;71.94;98948.02;129973;1093;22509;-57
2021/07/19 04:44:10;;;;;;;30.05;18.73;;;;;;;25.27;72.25;98954.53;130009;1093;23169;-57
2021/07/19 04:46:38;;;;;;;28.18;17.53;;;;;;;25.34;72.10;98948.30;130013;1091;22639;-57
2021/07/19 04:49:08;;;;;;;25.63;17.00;;;;;;;25.40;71.65;98952.38;130086;1092;22542;-57
2021/07/19 04:51:38;;;;;;;28.73;16.88;;;;;;;25.45;71.43;98945.69;130042;1093;22568;-58
2021/07/19 04:54:08;;;;;;;25.60;17.70;;;;;;;25.49;70.90;98947.38;129979;1092;22536;-57
2021/07/19 04:56:37;;;;;;;22.83;15.95;;;;;;;25.54;70.58;98949.84;129830;1092;22582;-57
2021/07/19 04:59:06;;;;;;;26.30;16.40;;;;;;;25.60;70.30;98948.36;129841;1093;23243;-57
2021/07/19 05:01:36;;;;;;;28.15;16.40;;;;;;;25.65;69.58;98939.72;130095;1091;22611;-57
2021/07/19 05:04:05;;;;;;;24.25;15.90;;;;;;;25.71;69.14;98941.01;130040;1092;23663;-57
2021/07/19 05:06:34;;;;;;;34.33;18.28;;;;;;;25.78;68.88;98940.33;129951;1093;22568;-57
2021/07/19 05:09:02;;;;;;;24.55;16.15;;;;;;;25.85;68.79;98940.44;129993;1093;22535;-57
2021/07/19 05:11:31;;;;;;;18.30;14.98;;;;;;;25.94;68.19;98935.42;130086;1091;24506;-57
2021/07/19 05:14:01;;;;;;;19.95;17.00;;;;;;;26.05;67.51;98941.16;129970;1092;22554;-57
2021/07/19 05:16:32;;;;;;;19.93;14.30;;;;;;;26.16;67.23;98938.53;130000;1093;22529;-57
2021/07/19 05:19:05;;;;;;;23.28;15.55;;;;;;;26.31;66.43;98938.39;129819;1093;22533;-56
2021/07/19 05:21:35;;;;;;;25.60;15.95;;;;;;;26.53;65.80;98933.93;130004;1092;22605;-57
2021/07/19 05:24:05;;;;;;;25.38;15.53;;;;;;;26.80;64.89;98939.45;130005;1093;22634;-57
2021/07/19 05:26:37;;;;;;;20.60;14.58;;;;;;;27.07;63.90;98935.42;130049;1093;22585;-57
2021/07/19 05:29:06;;;;;;;26.85;16.03;;;;;;;27.34;63.60;98939.71;130016;1093;23102;-57
2021/07/19 05:31:36;;;;;;;22.85;15.33;;;;;;;27.58;62.38;98935.56;130056;1093;22639;-57
2021/07/19 05:34:05;;;;;;;28.25;15.85;;;;;;;27.74;62.18;98924.92;130021;1092;22610;-57
2021/07/19 05:36:34;;;;;;;21.48;14.73;;;;;;;28.00;62.06;98934.31;130080;1093;22534;-57
2021/07/19 05:39:03;;;;;;;23.45;14.20;;;;;;;28.21;60.93;98931.72;130012;1093;22523;-58
2021/07/19 05:41:36;;;;;;;23.00;14.78;;;;;;;28.39;60.56;98926.23;130051;1093;22587;-57
2021/07/19 05:44:05;;;;;;;22.05;14.18;;;;;;;28.61;60.62;98941.95;130038;1093;22634;-56
2021/07/19 05:46:33;;;;;;;28.88;14.85;;;;;;;28.84;59.32;98938.91;130004;1093;22590;-56
2021/07/19 05:49:03;;;;;;;25.20;14.50;;;;;;;29.06;60.12;98937.77;130056;1093;22590;-56
2021/07/19 05:51:32;;;;;;;28.03;13.93;;;;;;;29.30;58.92;98936.23;129846;1093;22526;-56
2021/07/19 05:54:03;;;;;;;23.60;14.03;;;;;;;29.54;58.98;98934.72;130076;1092;22692;-56
2021/07/19 05:56:32;;;;;;;26.98;15.20;;;;;;;29.72;58.67;98935.51;130040;1092;22549;-57
2021/07/19 05:59:02;;;;;;;22.53;15.30;;;;;;;29.84;57.44;98937.14;130061;1093;22508;-57
2021/07/19 06:01:31;;;;;;;21.08;13.40;;;;;;;29.88;56.46;98929.50;130070;1093;22559;-56
2021/07/19 06:04:00;;;;;;;22.38;15.40;;;;;;;29.89;56.88;98933.91;130058;1092;23471;-56
2021/07/19 06:06:30;;;;;;;31.43;14.93;;;;;;;29.89;57.42;98929.09;130015;1093;22498;-57
2021/07/19 06:08:59;;;;;;;23.13;14.95;;;;;;;29.93;56.43;98937.53;130089;1093;23057;-56
2021/07/19 06:11:29;;;;;;;22.08;14.85;;;;;;;29.96;56.56;98938.74;130022;1093;22606;-56
2021/07/19 06:13:58;;;;;;;18.83;13.35;;;;;;;29.96;56.29;98945.16;130070;1093;22622;-56
2021/07/19 06:16:28;;;;;;;21.95;13.55;;;;;;;29.87;56.42;98953.97;130038;1093;23320;-56
2021/07/19 06:18:57;;;;;;;19.00;14.55;;;;;;;29.74;55.41;98951.96;130076;1093;22527;-57
2021/07/19 06:21:26;;;;;;;21.10;14.88;;;;;;;29.54;56.13;98957.98;130022;1092;23120;-57
2021/07/19 06:23:55;;;;;;;20.20;14.78;;;;;;;29.37;56.83;98957.91;130096;1092;22544;-56
2021/07/19 06:26:24;;;;;;;26.55;15.38;;;;;;;29.18;56.65;98959.85;130016;1092;22596;-56
2021/07/19 06:28:53;;;;;;;27.70;15.70;;;;;;;29.01;57.68;98948.56;130058;1093;22522;-56
2021/07/19 06:31:22;;;;;;;23.25;15.53;;;;;;;28.92;58.94;98957.36;129778;1091;23185;-56
2021/07/19 06:33:51;;;;;;;23.83;15.50;;;;;;;28.83;58.10;98952.13;130051;1093;23558;-56
2021/07/19 06:36:20;;;;;;;21.15;17.15;;;;;;;28.76;59.30;98952.04;129999;1092;22586;-56
2021/07/19 06:38:49;;;;;;;30.25;15.80;;;;;;;28.69;59.34;98948.42;130055;1093;22493;-56
2021/07/19 06:41:18;;;;;;;17.95;15.35;;;;;;;28.66;59.11;98949.20;130056;1092;22533;-58
2021/07/19 06:43:47;;;;;;;21.58;16.53;;;;;;;28.63;57.99;98955.58;130084;1092;23579;-58
2021/07/19 06:46:16;;;;;;;23.50;16.68;;;;;;;28.60;59.72;98959.16;130053;1093;22628;-58
2021/07/19 06:48:45;;;;;;;26.68;16.75;;;;;;;28.61;59.54;98957.97;130055;1092;22544;-58
2021/07/19 06:51:14;;;;;;;21.18;16.90;;;;;;;28.61;59.68;98961.58;130035;1093;23913;-58
2021/07/19 06:53:43;;;;;;;28.73;17.00;;;;;;;28.60;58.67;98962.77;130116;1092;23121;-58
2021/07/19 06:56:12;;;;;;;29.03;15.73;;;;;;;28.59;58.68;98960.36;130056;1093;23078;-58
2021/07/19 06:58:40;;;;;;;21.55;15.88;;;;;;;28.57;58.25;98976.78;130095;1092;22664;-58
2021/07/19 07:01:09;;;;;;;23.20;15.75;;;;;;;28.54;58.16;98972.77;130143;1092;22881;-58
2021/07/19 07:03:39;;;;;;;29.98;17.28;;;;;;;28.49;58.85;98965.52;130015;1093;23547;-57
2021/07/19 07:06:27;;;;;;;22.88;17.13;;;;;;;28.50;58.49;98963.52;130064;1092;23041;-58
2021/07/19 07:08:58;;;;;;;28.48;17.80;;;;;;;28.52;58.70;98960.33;130080;1093;22578;-57
2021/07/19 07:11:28;;;;;;;24.73;17.13;;;;;;;28.57;59.35;98960.74;129998;1093;23078;-58
2021/07/19 07:13:57;;;;;;;27.58;17.38;;;;;;;28.64;59.91;98958.00;129795;1093;22540;-57
2021/07/19 07:16:26;;;;;;;20.93;17.28;;;;;;;28.70;59.76;98945.22;130090;1093;22540;-57
2021/07/19 07:18:56;;;;;;;24.13;17.25;;;;;;;28.76;59.47;98940.02;130067;1092;22539;-57
2021/07/19 07:21:25;;;;;;;23.40;18.45;;;;;;;28.83;59.34;98942.91;130022;1092;22592;-58
2021/07/19 07:23:54;;;;;;;26.93;17.75;;;;;;;28.88;57.59;98941.70;130017;1091;23133;-57
2021/07/19 07:26:24;;;;;;;28.55;18.40;;;;;;;28.90;57.94;98933.70;130034;1093;22513;-57
2021/07/19 07:28:53;;;;;;;31.05;18.28;;;;;;;28.86;57.70;98922.46;130084;1093;22534;-57
2021/07/19 07:31:29;;;;;;;26.85;18.03;;;;;;;28.92;58.17;98931.30;130082;1093;22581;-58
2021/07/19 07:33:58;;;;;;;26.05;18.18;;;;;;;28.93;57.53;98925.31;130045;1093;23387;-57
2021/07/19 07:36:29;;;;;;;29.85;17.88;;;;;;;28.92;57.46;98917.28;130116;1093;23928;-57
2021/07/19 07:38:58;;;;;;;32.95;18.30;;;;;;;28.91;57.98;98908.06;130056;1093;22529;-57
2021/07/19 07:41:29;;;;;;;29.48;19.08;;;;;;;28.95;59.17;98913.70;130095;1093;22558;-60
2021/07/19 07:43:58;;;;;;;36.93;21.20;;;;;;;28.99;58.99;98904.10;130084;1093;23893;-60
2021/07/19 07:46:28;;;;;;;33.75;20.43;;;;;;;29.06;59.39;98901.30;130076;1093;22615;-61
2021/07/19 07:48:56;;;;;;;33.48;19.80;;;;;;;29.12;58.64;98902.53;130059;1093;23672;-61
2021/07/19 07:51:25;;;;;;;36.15;18.80;;;;;;;29.19;58.27;98898.92;129824;1093;23121;-60
2021/07/19 07:53:58;;;;;;;34.68;18.40;;;;;;;29.28;57.38;98904.17;130009;1093;22510;-61
2021/07/19 07:56:28;;;;;;;27.20;18.40;;;;;;;29.36;57.37;98900.16;130022;1093;22547;-61
2021/07/19 07:58:56;;;;;;;29.43;17.95;;;;;;;29.40;57.37;98887.78;130033;1093;23154;-61
2021/07/19 08:01:27;;;;;;;29.80;19.40;;;;;;;29.46;57.15;98872.13;130061;1093;22513;-61
2021/07/19 08:03:56;;;;;;;32.33;20.23;;;;;;;29.52;56.76;98864.92;130044;1092;23514;-60
2021/07/19 08:06:25;;;;;;;28.73;18.63;;;;;;;29.57;55.68;98858.12;130024;1092;22523;-60
2021/07/19 08:08:55;;;;;;;30.50;19.13;;;;;;;29.59;56.13;98844.45;130037;1091;22541;-60
2021/07/19 08:11:26;;;;;;;31.73;18.25;;;;;;;29.63;56.54;98842.45;130102;1093;22562;-61
2021/07/19 08:13:56;;;;;;;31.00;16.98;;;;;;;29.65;56.29;98847.67;130105;1092;22573;-61
2021/07/19 08:16:25;;;;;;;28.13;17.68;;;;;;;29.73;55.67;98849.26;129825;1092;23398;-61
2021/07/19 08:18:53;;;;;;;25.28;15.20;;;;;;;29.76;55.41;98845.66;130113;1092;22644;-61
2021/07/19 08:21:22;;;;;;;19.63;15.60;;;;;;;29.76;54.94;98846.45;130038;1092;22564;-61
2021/07/19 08:23:51;;;;;;;23.90;17.83;;;;;;;29.70;54.33;98838.86;130070;1092;22514;-61
2021/07/19 08:26:20;;;;;;;23.23;16.70;;;;;;;29.57;54.80;98818.81;130056;1092;22550;-61
2021/07/19 08:28:51;;;;;;;31.93;17.58;;;;;;;29.40;54.95;98820.42;130047;1093;22886;-60
2021/07/19 08:31:20;;;;;;;24.65;16.60;;;;;;;29.36;55.38;98852.45;129759;1093;22561;-60
2021/07/19 08:33:49;;;;;;;28.60;16.63;;;;;;;29.28;55.92;98870.50;130090;1093;22640;-60
2021/07/19 08:36:19;;;;;;;25.30;15.73;;;;;;;29.15;56.27;98884.88;130044;1093;23415;-60
2021/07/19 08:38:48;;;;;;;22.05;15.63;;;;;;;29.04;56.29;98900.09;130096;1092;23854;-60
2021/07/19 08:41:17;;;;;;;24.23;15.17;;;;;;;28.94;56.62;98935.33;125778;1092;22802;-60
2021/07/19 08:43:45;;;;;;;35.73;14.75;;;;;;;28.84;56.21;98969.75;125372;1093;26262;-60
2021/07/19 08:46:14;;;;;;;40.98;10.25;;;;;;;28.37;53.82;98996.67;129929;1092;22544;-60
2021/07/19 08:48:52;;;;;;;34.75;9.78;;;;;;;27.33;57.37;99026.82;130066;1093;22584;-60
2021/07/19 08:51:21;;;;;;;27.15;8.88;;;;;;;26.31;60.97;99078.05;130013;1093;22562;-61
2021/07/19 08:53:51;;;;;;;16.68;7.95;;;;;;;25.50;62.57;99082.89;130090;1092;22564;-60
2021/07/19 08:56:20;;;;;;;22.08;10.00;;;;;;;24.80;65.86;99071.00;130058;1091;22548;-60
2021/07/19 08:58:49;;;;;;;20.50;10.55;;;;;;;24.24;69.69;99083.17;130128;1092;22526;-60
2021/07/19 09:01:18;;;;;;;17.40;9.68;;;;;;;23.77;70.30;99068.41;130055;1093;22545;-61
2021/07/19 09:03:47;;;;;;;19.85;10.73;;;;;;;23.46;71.19;99046.86;130113;1093;22588;-60
2021/07/19 09:06:16;;;;;;;25.75;10.20;;;;;;;23.20;72.21;99044.55;130042;1092;22580;-60
2021/07/19 09:08:49;;;;;;;13.48;6.35;;;;;;;22.77;75.87;99075.81;130082;1092;23117;-60
2021/07/19 09:11:19;;;;;;;21.03;7.45;;;;;;;22.21;76.43;99083.90;130095;1092;23540;-60
2021/07/19 09:14:17;;;;;;;8.40;4.50;;;;;;;21.76;73.22;99095.80;130091;1092;22530;-59
2021/07/19 09:16:47;;;;;;;15.33;6.45;;;;;;;21.28;70.58;99079.79;129707;1094;22540;-59
2021/07/19 09:19:18;;;;;;;11.38;5.15;;;;;;;20.90;70.15;99035.61;129736;1095;22572;-60
2021/07/19 09:21:49;;;;;;;9.73;6.05;;;;;;;20.70;70.53;99023.37;129698;1096;23347;-59
2021/07/19 09:24:22;;;;;;;12.55;6.65;;;;;;;20.51;71.49;99033.27;129760;1096;22552;-59
2021/07/19 09:26:52;;;;;;;9.50;7.58;;;;;;;20.34;71.80;99028.64;130348;1088;22559;-58
2021/07/19 09:29:22;;;;;;;14.95;7.93;;;;;;;20.27;72.85;99042.17;130397;1090;22597;-58
2021/07/19 09:31:54;;;;;;;15.38;8.00;;;;;;;20.22;74.66;99064.48;130464;1090;22656;-58
2021/07/19 09:34:27;;;;;;;19.88;9.08;;;;;;;20.19;75.54;99071.52;130375;1089;23295;-59
2021/07/19 09:37:03;;;;;;;15.95;9.28;;;;;;;20.15;76.48;99067.78;130129;1090;23260;-59
2021/07/19 09:39:46;;;;;;;19.25;8.90;;;;;;;20.10;76.95;99071.53;130365;1090;22555;-59
2021/07/19 09:42:16;;;;;;;16.53;9.45;;;;;;;19.92;77.54;99113.40;130412;1089;22557;-60
2021/07/19 09:44:52;;;;;;;17.20;8.48;;;;;;;19.86;78.10;99115.55;130347;1090;22589;-58
2021/07/19 09:47:34;;;;;;;11.78;8.25;;;;;;;19.78;77.90;99139.29;130397;1090;23445;-58
2021/07/19 09:50:15;;;;;;;17.88;9.35;;;;;;;19.78;77.92;99132.95;130085;1090;22544;-58
2021/07/19 09:52:45;;;;;;;16.38;9.58;;;;;;;19.80;78.52;99103.02;130440;1087;23342;-59
2021/07/19 09:55:21;;;;;;;17.35;9.20;;;;;;;19.80;78.82;99082.86;130512;1087;22590;-59
2021/07/19 09:57:57;;;;;;;15.65;9.30;;;;;;;19.78;78.58;99063.83;130656;1087;22552;-59
2021/07/19 10:00:31;;;;;;;12.93;8.33;;;;;;;19.77;78.51;99076.84;130610;1087;22625;-59
2021/07/19 10:03:12;;;;;;;13.80;7.83;;;;;;;19.80;78.46;99089.20;130633;1087;22565;-58
2021/07/19 10:05:41;;;;;;;11.35;8.20;;;;;;;19.83;78.15;99088.55;130612;1086;22539;-58
2021/07/19 10:08:21;;;;;;;18.63;9.70;;;;;;;19.87;78.60;99095.05;130666;1087;22561;-59
2021/07/19 10:10:50;;;;;;;16.48;9.23;;;;;;;19.91;78.90;99095.21;130482;1087;22547;-58
2021/07/19 10:13:19;;;;;;;15.40;9.10;;;;;;;19.93;79.04;99090.14;130542;1087;22544;-58
2021/07/19 10:15:49;;;;;;;17.73;9.08;;;;;;;19.97;79.58;99080.05;130464;1087;22601;-59
2021/07/19 10:18:18;;;;;;;17.73;9.90;;;;;;;20.00;79.74;99069.14;130543;1087;23068;-59
2021/07/19 10:20:47;;;;;;;15.73;9.43;;;;;;;20.03;79.78;99062.95;130480;1085;22548;-59
2021/07/19 10:23:15;;;;;;;13.70;9.00;;;;;;;20.07;79.96;99061.13;130629;1086;22552;-59
2021/07/19 10:25:45;;;;;;;11.80;8.88;;;;;;;20.13;80.03;99056.23;130425;1085;22557;-59
2021/07/19 10:28:14;;;;;;;13.85;9.80;;;;;;;20.19;80.33;99059.64;130502;1087;23561;-59
2021/07/19 10:30:43;;;;;;;12.00;9.35;;;;;;;20.28;81.01;99060.39;130475;1087;22549;-59
2021/07/19 10:33:12;;;;;;;16.90;10.15;;;;;;;20.36;81.54;99067.86;130665;1087;22537;-59
2021/07/19 10:35:41;;;;;;;18.23;10.68;;;;;;;20.43;81.46;99074.50;130668;1087;22543;-59
2021/07/19 10:38:29;;;;;;;16.85;10.18;;;;;;;20.50;81.69;99086.98;130567;1086;22550;-59
2021/07/19 10:40:59;;;;;;;16.83;10.80;;;;;;;20.55;81.35;99120.84;126852;1086;22771;-59
2021/07/19 10:43:29;;;;;;;18.55;11.08;;;;;;;20.59;81.16;99154.20;126040;1087;22818;-59
2021/07/19 10:46:11;;;;;;;20.00;11.25;;;;;;;20.63;81.36;99199.47;130513;1087;23137;-59
2021/07/19 10:48:43;;;;;;;18.13;12.53;;;;;;;20.67;81.53;99217.83;130626;1086;23354;-59
2021/07/19 10:51:18;;;;;;;23.93;12.78;;;;;;;20.69;81.73;99240.46;130500;1087;22622;-59
2021/07/19 10:53:48;;;;;;;24.15;14.80;;;;;;;20.70;82.03;99244.86;130674;1085;22536;-60
2021/07/19 10:56:17;;;;;;;31.18;17.20;;;;;;;20.72;82.94;99247.30;130586;1087;22541;-59
2021/07/19 10:58:48;;;;;;;30.93;16.95;;;;;;;20.73;82.86;99249.73;130448;1087;22566;-59
2021/07/19 11:01:24;;;;;;;27.00;16.15;;;;;;;20.78;83.36;99212.72;130600;1087;22539;-59
2021/07/19 11:03:54;;;;;;;32.75;16.25;;;;;;;20.79;83.44;99151.47;130540;1086;22563;-59
2021/07/19 11:06:38;;;;;;;28.90;14.85;;;;;;;20.76;83.43;99143.05;130486;1087;22560;-60
2021/07/19 11:09:08;;;;;;;28.45;16.23;;;;;;;20.73;83.92;99118.80;130645;1087;22515;-59
2021/07/19 11:11:40;;;;;;;20.60;13.80;;;;;;;20.67;84.41;99082.17;130614;1086;22574;-59
2021/07/19 11:14:16;;;;;;;29.55;13.73;;;;;;;20.61;84.50;99055.84;130719;1086;22616;-59
2021/07/19 11:16:46;;;;;;;23.60;12.63;;;;;;;20.59;84.63;99022.15;130632;1086;22548;-59
2021/07/19 11:19:16;;;;;;;23.25;14.65;;;;;;;20.57;84.88;98999.53;130617;1087;22595;-59
2021/07/19 11:21:45;;;;;;;23.10;13.35;;;;;;;20.54;85.12;98985.55;130497;1086;23293;-59
2021/07/19 11:24:17;;;;;;;21.88;13.58;;;;;;;20.51;85.42;98986.21;130679;1087;22509;-58
2021/07/19 11:26:47;;;;;;;22.18;13.83;;;;;;;20.49;85.32;98992.08;130553;1086;22736;-59
2021/07/19 11:29:33;;;;;;;21.73;12.85;;;;;;;20.50;85.49;99002.00;130502;1087;22535;-59